createdAt,value
2023-01-26T00:02:11.488Z,241.95
2023-01-26T00:04:38.994Z,232.77
2023-01-26T00:07:06.474Z,225.50
2023-01-26T00:09:33.945Z,228.70
2023-01-26T00:12:08.645Z,219.85
2023-01-26T00:14:50.058Z,202.32
2023-01-26T00:17:26.078Z,197.52
2023-01-26T00:19:57.872Z,217.63
2023-01-26T00:22:27.205Z,205.93
2023-01-26T00:24:57.131Z,198.45
2023-01-26T00:27:24.738Z,218.75
2023-01-26T00:29:52.161Z,197.57
2023-01-26T00:32:19.825Z,202.35
2023-01-26T00:34:47.677Z,201.85
2023-01-26T00:37:16.358Z,210.38
2023-01-26T00:39:45.188Z,205.02
2023-01-26T00:42:14.535Z,209.05
2023-01-26T00:44:43.351Z,216.43
2023-01-26T00:47:12.183Z,226.15
2023-01-26T00:49:39.803Z,203.60
2023-01-26T00:52:07.479Z,210.95
2023-01-26T00:54:35.197Z,226.02
2023-01-26T00:57:02.966Z,210.18
2023-01-26T00:59:32.695Z,213.25
2023-01-26T01:02:02.715Z,214.07
2023-01-26T01:04:31.591Z,203.27
2023-01-26T01:06:59.492Z,207.80
2023-01-26T01:09:27.064Z,211.43
2023-01-26T01:11:54.497Z,209.93
2023-01-26T01:14:21.906Z,205.02
2023-01-26T01:16:49.264Z,207.70
2023-01-26T01:19:33.209Z,199.88
2023-01-26T01:22:02.175Z,197.32
2023-01-26T01:24:29.809Z,214.82
2023-01-26T01:26:57.267Z,200.77
2023-01-26T01:29:24.880Z,220.90
2023-01-26T01:31:53.527Z,202.15
2023-01-26T01:34:21.026Z,205.65
2023-01-26T01:36:48.521Z,213.55
2023-01-26T01:41:42.378Z,192.77
2023-01-26T01:44:15.188Z,213.88
2023-01-26T01:49:19.663Z,194.48
2023-01-26T01:52:19.060Z,205.52
2023-01-26T01:54:53.718Z,204.98
2023-01-26T01:57:31.513Z,210.02
2023-01-26T02:00:06.192Z,224.13
2023-01-26T02:02:33.921Z,219.23
2023-01-26T02:05:08.271Z,203.77
2023-01-26T02:07:35.747Z,220.30
2023-01-26T02:10:19.149Z,225.35
2023-01-26T02:12:48.005Z,213.43
2023-01-26T02:15:15.567Z,215.88
2023-01-26T02:17:43.059Z,217.38
2023-01-26T02:20:21.556Z,223.55
2023-01-26T02:23:12.067Z,199.40
2023-01-26T02:26:05.431Z,229.32
2023-01-26T02:28:33.048Z,222.57
2023-01-26T02:31:00.668Z,243.77
2023-01-26T02:33:29.816Z,229.23
2023-01-26T02:35:57.341Z,211.85
2023-01-26T02:38:29.210Z,211.27
2023-01-26T02:40:59.451Z,264.57
2023-01-26T02:43:28.318Z,252.77
2023-01-26T02:45:56.301Z,224.05
2023-01-26T02:48:43.758Z,251.00
2023-01-26T02:51:11.524Z,198.60
2023-01-26T02:53:41.312Z,241.88
2023-01-26T02:56:08.948Z,202.88
2023-01-26T02:58:37.782Z,202.13
2023-01-26T03:01:05.360Z,208.07
2023-01-26T03:03:42.074Z,217.77
2023-01-26T03:06:11.021Z,193.07
2023-01-26T03:08:38.795Z,182.00
2023-01-26T03:11:07.286Z,196.15
2023-01-26T03:13:35.648Z,164.60
2023-01-26T03:16:07.154Z,183.85
2023-01-26T03:18:54.871Z,180.73
2023-01-26T03:21:41.015Z,183.15
2023-01-26T03:24:31.052Z,189.57
2023-01-26T03:27:16.881Z,188.57
2023-01-26T03:29:44.617Z,194.93
2023-01-26T03:32:12.924Z,179.45
2023-01-26T03:34:40.517Z,176.02
2023-01-26T03:37:08.377Z,189.75
2023-01-26T03:39:54.711Z,175.73
2023-01-26T03:42:41.385Z,173.57
2023-01-26T03:45:28.211Z,160.80
2023-01-26T03:48:26.287Z,164.48
2023-01-26T03:51:12.344Z,160.93
2023-01-26T03:53:58.531Z,149.30
2023-01-26T03:56:32.505Z,164.48
2023-01-26T03:59:08.559Z,159.18
2023-01-26T04:02:03.140Z,149.52
2023-01-26T04:04:49.557Z,147.50
2023-01-26T04:07:35.720Z,145.93
2023-01-26T04:10:04.537Z,174.68
2023-01-26T04:12:32.096Z,141.00
2023-01-26T04:15:18.345Z,159.38
2023-01-26T04:18:04.776Z,155.48
2023-01-26T04:20:50.831Z,172.77
2023-01-26T04:23:21.762Z,158.88
2023-01-26T04:25:49.687Z,155.45
2023-01-26T04:28:17.480Z,155.80
2023-01-26T04:30:45.027Z,151.93
2023-01-26T04:33:12.938Z,157.38
2023-01-26T04:35:41.080Z,147.48
2023-01-26T04:38:08.541Z,155.68
2023-01-26T04:40:36.150Z,175.10
2023-01-26T04:43:04.529Z,156.90
2023-01-26T04:45:32.113Z,192.65
2023-01-26T04:47:59.819Z,177.50
2023-01-26T04:50:27.273Z,229.80
2023-01-26T04:52:54.841Z,212.80
2023-01-26T04:55:22.335Z,232.82
2023-01-26T04:57:49.760Z,162.18
2023-01-26T05:00:17.871Z,165.80
2023-01-26T05:02:45.442Z,174.25
2023-01-26T05:05:13.238Z,195.73
2023-01-26T05:07:40.820Z,153.65
2023-01-26T05:10:09.031Z,191.98
2023-01-26T05:12:38.432Z,226.68
2023-01-26T05:15:06.159Z,202.63
2023-01-26T05:17:33.813Z,135.18
2023-01-26T05:20:03.739Z,187.40
2023-01-26T05:22:31.182Z,191.27
2023-01-26T05:24:58.797Z,137.15
2023-01-26T05:27:26.417Z,224.80
2023-01-26T05:29:55.218Z,207.90
2023-01-26T05:32:23.094Z,155.98
2023-01-26T05:34:50.651Z,140.38
2023-01-26T05:37:18.199Z,170.52
2023-01-26T05:39:45.707Z,132.00
2023-01-26T05:42:13.940Z,135.02
2023-01-26T05:44:41.374Z,136.35
2023-01-26T05:47:09.026Z,158.75
2023-01-26T05:49:40.046Z,126.82
2023-01-26T05:52:11.458Z,128.68
2023-01-26T05:54:39.000Z,163.13
2023-01-26T05:57:06.453Z,145.85
2023-01-26T05:59:34.010Z,142.95
2023-01-26T06:02:01.708Z,199.30
2023-01-26T06:04:32.504Z,144.05
2023-01-26T06:07:01.074Z,165.82
2023-01-26T06:09:28.497Z,162.55
2023-01-26T06:11:56.928Z,152.98
2023-01-26T06:14:24.875Z,166.45
2023-01-26T06:16:56.992Z,159.25
2023-01-26T06:19:27.841Z,165.23
2023-01-26T06:21:57.723Z,159.82
2023-01-26T06:24:25.483Z,218.55
2023-01-26T06:26:55.895Z,152.07
2023-01-26T06:29:23.366Z,149.48
2023-01-26T06:31:53.898Z,146.60
2023-01-26T06:34:22.150Z,146.73
2023-01-26T06:36:49.669Z,154.27
2023-01-26T06:39:44.615Z,147.88
2023-01-26T06:42:13.448Z,218.38
2023-01-26T06:44:43.940Z,148.73
2023-01-26T06:47:12.458Z,146.00
2023-01-26T06:49:40.043Z,182.95
2023-01-26T06:52:20.540Z,178.73
2023-01-26T06:54:50.881Z,202.18
2023-01-26T06:57:18.630Z,144.88
2023-01-26T06:59:46.124Z,178.88
2023-01-26T07:02:18.882Z,165.20
2023-01-26T07:04:47.615Z,195.55
2023-01-26T07:07:15.743Z,233.98
2023-01-26T07:09:43.722Z,194.80
2023-01-26T07:12:11.277Z,192.43
2023-01-26T07:14:38.945Z,308.70
2023-01-26T07:17:06.360Z,177.98
2023-01-26T07:19:34.077Z,334.10
2023-01-26T07:22:02.592Z,256.42
2023-01-26T07:24:30.376Z,366.17
2023-01-26T07:26:59.034Z,314.17
2023-01-26T07:29:29.492Z,277.60
2023-01-26T07:31:57.177Z,284.27
2023-01-26T07:37:02.510Z,295.00
2023-01-26T07:39:30.198Z,345.48
2023-01-26T07:41:57.728Z,472.63
2023-01-26T07:44:25.414Z,427.88
2023-01-26T07:46:55.217Z,636.88
2023-01-26T07:49:23.933Z,584.05
2023-01-26T07:51:52.636Z,566.30
2023-01-26T07:54:21.783Z,330.95
2023-01-26T07:56:52.995Z,258.95
2023-01-26T07:59:21.198Z,472.90
2023-01-26T08:01:50.594Z,472.98
2023-01-26T08:04:23.292Z,300.95
2023-01-26T08:06:56.882Z,240.30
2023-01-26T08:09:25.159Z,339.50
2023-01-26T08:11:52.743Z,290.20
2023-01-26T08:14:20.377Z,230.93
2023-01-26T08:16:48.449Z,205.68
2023-01-26T08:19:16.152Z,232.80
2023-01-26T08:21:43.795Z,205.10
2023-01-26T08:24:12.988Z,177.75
2023-01-26T08:26:40.687Z,163.00
2023-01-26T08:29:08.320Z,159.68
2023-01-26T08:31:36.006Z,141.52
2023-01-26T08:34:05.311Z,132.93
2023-01-26T08:36:32.943Z,111.15
2023-01-26T08:39:03.053Z,123.93
2023-01-26T08:41:31.529Z,115.00
2023-01-26T08:43:59.538Z,107.10
2023-01-26T08:46:27.592Z,104.18
2023-01-26T08:49:00.334Z,103.78
2023-01-26T08:51:28.351Z,95.50
2023-01-26T08:53:56.472Z,89.25
2023-01-26T08:56:24.254Z,98.45
2023-01-26T08:58:51.841Z,96.72
2023-01-26T09:01:20.058Z,78.50
2023-01-26T09:03:47.673Z,68.82
2023-01-26T09:06:16.042Z,74.45
2023-01-26T09:08:43.680Z,68.85
2023-01-26T09:11:12.264Z,57.10
2023-01-26T09:13:40.309Z,66.55
2023-01-26T09:16:18.957Z,60.55
2023-01-26T09:18:49.301Z,67.63
2023-01-26T09:21:17.497Z,61.25
2023-01-26T09:23:45.526Z,75.50
2023-01-26T09:26:13.083Z,66.18
2023-01-26T09:28:40.917Z,71.45
2023-01-26T09:31:13.732Z,64.00
2023-01-26T09:36:11.932Z,66.82
2023-01-26T09:38:40.229Z,59.63
2023-01-26T09:41:30.594Z,64.97
2023-01-26T09:44:04.965Z,51.35
2023-01-26T09:47:00.437Z,68.00
2023-01-26T09:49:49.419Z,64.93
2023-01-26T09:52:27.729Z,58.17
2023-01-26T09:55:06.674Z,57.97
2023-01-26T09:58:01.776Z,66.05
2023-01-26T10:00:32.461Z,60.83
2023-01-26T10:03:18.701Z,67.50
2023-01-26T10:06:15.683Z,64.65
2023-01-26T10:08:44.030Z,65.80
2023-01-26T10:11:32.213Z,54.88
2023-01-26T10:14:15.017Z,51.97
2023-01-26T10:16:49.533Z,59.25
2023-01-26T10:19:32.735Z,52.00
2023-01-26T10:22:04.107Z,63.55
2023-01-26T10:24:34.940Z,59.05
2023-01-26T10:27:02.782Z,64.45
2023-01-26T10:29:30.209Z,55.10
2023-01-26T10:31:57.695Z,60.83
2023-01-26T10:34:28.583Z,54.15
2023-01-26T10:37:34.620Z,56.38
2023-01-26T10:40:07.562Z,57.58
2023-01-26T10:42:36.646Z,57.58
2023-01-26T10:45:28.079Z,51.58
2023-01-26T10:48:18.734Z,60.60
2023-01-26T10:50:47.827Z,57.63
2023-01-26T10:53:25.522Z,65.38
2023-01-26T10:56:03.835Z,52.25
2023-01-26T10:58:37.210Z,57.50
2023-01-26T11:01:04.689Z,51.63
2023-01-26T11:03:32.161Z,51.80
2023-01-26T11:06:15.570Z,53.55
2023-01-26T11:08:44.112Z,54.92
2023-01-26T11:11:27.160Z,58.08
2023-01-26T11:14:16.250Z,52.72
2023-01-26T11:16:54.343Z,55.65
2023-01-26T11:19:30.771Z,46.20
2023-01-26T11:22:27.777Z,52.45
2023-01-26T11:25:01.003Z,51.58
2023-01-26T11:27:51.650Z,43.42
2023-01-26T11:30:37.704Z,50.05
2023-01-26T11:33:30.285Z,45.35
2023-01-26T11:36:06.865Z,53.20
2023-01-26T11:38:42.379Z,44.25
2023-01-26T11:41:28.708Z,42.78
2023-01-26T11:44:08.067Z,45.92
2023-01-26T11:46:56.073Z,38.90
2023-01-26T11:49:58.534Z,40.85
2023-01-26T11:52:41.156Z,40.00
2023-01-26T11:55:38.600Z,31.70
2023-01-26T11:58:11.979Z,40.30
2023-01-26T12:01:11.422Z,33.10
2023-01-26T12:03:43.415Z,37.63
2023-01-26T12:06:32.311Z,31.33
2023-01-26T12:09:21.751Z,37.55
2023-01-26T12:11:56.154Z,32.72
2023-01-26T12:14:47.355Z,24.98
2023-01-26T12:17:43.129Z,29.85
2023-01-26T12:20:27.165Z,26.80
2023-01-26T12:23:29.900Z,26.75
2023-01-26T12:26:00.684Z,22.90
2023-01-26T12:28:48.475Z,30.00
2023-01-26T12:31:25.942Z,28.70
2023-01-26T12:33:55.101Z,29.85
2023-01-26T12:36:43.934Z,23.30
2023-01-26T12:39:22.184Z,27.02
2023-01-26T12:42:07.821Z,21.02
2023-01-26T12:44:41.604Z,22.70
2023-01-26T12:47:27.919Z,23.13
2023-01-26T12:50:30.627Z,22.98
2023-01-26T12:53:19.076Z,23.93
2023-01-26T12:56:16.671Z,30.40
2023-01-26T12:58:46.228Z,26.73
2023-01-26T13:01:16.403Z,23.90
2023-01-26T13:03:51.713Z,23.58
2023-01-26T13:06:22.327Z,24.38
2023-01-26T13:08:57.891Z,26.83
2023-01-26T13:11:47.973Z,23.88
2023-01-26T13:14:43.514Z,31.73
2023-01-26T13:17:53.035Z,28.08
2023-01-26T13:20:45.151Z,29.35
2023-01-26T13:23:41.643Z,28.17
2023-01-26T13:26:21.058Z,23.05
2023-01-26T13:28:49.442Z,27.35
2023-01-26T13:31:32.958Z,21.13
2023-01-26T13:34:08.333Z,18.08
2023-01-26T13:36:38.061Z,13.90
2023-01-26T13:39:14.433Z,16.17
2023-01-26T13:41:48.545Z,14.68
2023-01-26T13:44:22.252Z,13.75
2023-01-26T13:46:57.500Z,13.00
2023-01-26T13:49:41.204Z,24.02
2023-01-26T13:52:21.074Z,17.55
2023-01-26T13:54:49.807Z,21.92
2023-01-26T13:57:25.981Z,22.02
2023-01-26T13:59:56.403Z,17.67
2023-01-26T14:02:31.431Z,17.60
2023-01-26T14:04:59.796Z,26.25
2023-01-26T14:07:37.107Z,14.30
2023-01-26T14:10:05.277Z,17.67
2023-01-26T14:12:47.394Z,12.20
2023-01-26T14:15:37.037Z,15.50
2023-01-26T14:18:05.539Z,16.83
2023-01-26T14:20:39.529Z,17.15
2023-01-26T14:23:18.746Z,21.73
2023-01-26T14:25:58.041Z,18.45
2023-01-26T14:28:29.655Z,20.38
2023-01-26T14:31:08.522Z,18.60
2023-01-26T14:33:37.326Z,23.90
2023-01-26T14:36:12.670Z,17.52
2023-01-26T14:38:45.109Z,15.75
2023-01-26T14:41:29.281Z,15.10
2023-01-26T14:44:00.289Z,19.45
2023-01-26T14:46:57.075Z,18.77
2023-01-26T14:49:43.381Z,25.20
2023-01-26T14:52:25.968Z,22.70
2023-01-26T14:54:54.688Z,26.55
2023-01-26T14:57:25.567Z,18.75
2023-01-26T15:00:04.026Z,22.23
2023-01-26T15:02:44.829Z,18.88
2023-01-26T15:05:25.384Z,19.30
2023-01-26T15:08:04.275Z,22.95
2023-01-26T15:10:42.884Z,16.98
2023-01-26T15:13:18.011Z,16.92
2023-01-26T15:15:50.968Z,18.00
2023-01-26T15:18:20.560Z,20.42
2023-01-26T15:21:00.522Z,17.33
2023-01-26T15:23:30.607Z,17.90
2023-01-26T15:26:05.551Z,18.00
2023-01-26T15:28:33.809Z,17.80
2023-01-26T15:31:02.628Z,15.18
2023-01-26T15:33:46.822Z,18.65
2023-01-26T15:36:33.004Z,15.07
2023-01-26T15:39:14.981Z,16.40
2023-01-26T15:41:43.661Z,16.52
2023-01-26T15:44:17.051Z,13.75
2023-01-26T15:46:45.042Z,13.23
2023-01-26T15:49:14.280Z,17.98
2023-01-26T15:51:42.044Z,11.73
2023-01-26T15:54:11.527Z,16.65
2023-01-26T15:56:39.527Z,20.55
2023-01-26T15:59:07.126Z,16.73
2023-01-26T16:01:34.772Z,17.00
2023-01-26T16:04:02.221Z,13.38
2023-01-26T16:06:32.590Z,18.90
2023-01-26T16:09:00.289Z,16.17
2023-01-26T16:11:31.032Z,12.95
2023-01-26T16:14:03.504Z,17.35
2023-01-26T16:16:32.280Z,13.18
2023-01-26T16:18:59.910Z,20.15
2023-01-26T16:21:31.728Z,16.70
2023-01-26T16:23:59.695Z,17.60
2023-01-26T16:26:28.452Z,16.85
2023-01-26T16:28:57.391Z,17.33
2023-01-26T16:31:34.132Z,15.32
2023-01-26T16:34:01.669Z,15.75
2023-01-26T16:36:31.782Z,13.02
2023-01-26T16:38:59.179Z,9.35
2023-01-26T16:41:31.824Z,14.07
2023-01-26T16:44:01.371Z,12.38
2023-01-26T16:46:30.397Z,12.60
2023-01-26T16:48:58.077Z,17.00
2023-01-26T16:51:32.715Z,16.42
2023-01-26T16:54:00.182Z,14.05
2023-01-26T16:56:28.805Z,18.95
2023-01-26T16:58:56.206Z,14.02
2023-01-26T17:01:28.513Z,18.08
2023-01-26T17:03:59.015Z,12.82
2023-01-26T17:06:26.976Z,17.10
2023-01-26T17:08:54.829Z,19.15
2023-01-26T17:11:27.655Z,16.25
2023-01-26T17:13:56.204Z,18.50
2023-01-26T17:16:34.702Z,17.15
2023-01-26T17:19:02.112Z,17.50
2023-01-26T17:21:29.509Z,14.40
2023-01-26T17:23:58.815Z,27.83
2023-01-26T17:26:26.406Z,21.88
2023-01-26T17:28:55.338Z,21.33
2023-01-26T17:31:23.470Z,22.67
2023-01-26T17:33:51.323Z,24.38
2023-01-26T17:36:20.178Z,20.35
2023-01-26T17:38:48.493Z,17.95
2023-01-26T17:41:16.573Z,16.25
2023-01-26T17:43:45.478Z,18.45
2023-01-26T17:46:14.648Z,22.17
2023-01-26T17:48:44.785Z,15.27
2023-01-26T17:51:16.520Z,21.98
2023-01-26T17:53:45.582Z,20.27
2023-01-26T17:56:15.085Z,17.40
2023-01-26T17:58:42.493Z,17.40
2023-01-26T18:01:11.316Z,15.85
2023-01-26T18:03:42.350Z,17.23
2023-01-26T18:06:09.951Z,25.55
2023-01-26T18:08:38.003Z,21.13
2023-01-26T18:11:07.478Z,18.83
2023-01-26T18:13:35.082Z,23.30
2023-01-26T18:16:03.188Z,28.52
2023-01-26T18:18:30.826Z,20.85
2023-01-26T18:20:58.356Z,20.60
2023-01-26T18:23:25.953Z,23.70
2023-01-26T18:25:53.362Z,21.38
2023-01-26T18:28:20.775Z,18.42
2023-01-26T18:30:48.567Z,23.98
2023-01-26T18:33:15.948Z,19.30
2023-01-26T18:35:43.313Z,23.63
2023-01-26T18:38:10.807Z,20.58
2023-01-26T18:40:40.190Z,23.70
2023-01-26T18:43:08.610Z,17.33
2023-01-26T18:45:35.992Z,17.13
2023-01-26T18:48:03.501Z,18.92
2023-01-26T18:50:30.900Z,16.83
2023-01-26T18:52:58.290Z,18.48
2023-01-26T18:55:26.200Z,18.60
2023-01-26T18:57:55.503Z,12.07
2023-01-26T19:00:23.070Z,18.92
2023-01-26T19:02:51.925Z,26.60
2023-01-26T19:05:19.440Z,13.25
2023-01-26T19:07:46.794Z,20.48
2023-01-26T19:10:14.709Z,16.77
2023-01-26T19:12:42.860Z,17.65
2023-01-26T19:15:10.999Z,18.27
2023-01-26T19:17:38.540Z,17.85
2023-01-26T19:20:06.615Z,26.30
2023-01-26T19:22:34.074Z,20.77
2023-01-26T19:25:01.563Z,26.05
2023-01-26T19:27:31.311Z,27.65
2023-01-26T19:29:58.943Z,18.60
2023-01-26T19:32:26.883Z,21.70
2023-01-26T19:34:54.427Z,17.88
2023-01-26T19:37:21.950Z,17.13
2023-01-26T19:39:50.688Z,14.55
2023-01-26T19:42:25.685Z,23.92
2023-01-26T19:44:53.095Z,14.95
2023-01-26T19:47:20.979Z,20.30
2023-01-26T19:49:48.450Z,22.23
2023-01-26T19:52:16.039Z,20.65
2023-01-26T19:54:43.515Z,20.80
2023-01-26T19:57:11.049Z,20.52
2023-01-26T19:59:38.491Z,19.88
2023-01-26T20:02:06.065Z,21.98
2023-01-26T20:04:36.023Z,22.80
2023-01-26T20:07:06.634Z,19.63
2023-01-26T20:09:37.125Z,18.55
2023-01-26T20:12:07.165Z,24.25
2023-01-26T20:14:37.237Z,20.13
2023-01-26T20:17:04.808Z,20.80
2023-01-26T20:19:34.813Z,20.13
2023-01-26T20:22:08.799Z,24.65
2023-01-26T20:24:36.169Z,21.33
2023-01-26T20:27:03.676Z,23.73
2023-01-26T20:29:33.415Z,19.83
2023-01-26T20:32:01.376Z,25.73
2023-01-26T20:34:29.030Z,27.63
2023-01-26T20:37:00.179Z,28.73
2023-01-26T20:39:28.249Z,22.52
2023-01-26T20:41:55.613Z,23.67
2023-01-26T20:44:23.107Z,21.00
2023-01-26T20:46:50.658Z,19.10
2023-01-26T20:49:21.568Z,29.30
2023-01-26T20:51:49.463Z,30.58
2023-01-26T20:54:17.774Z,20.58
2023-01-26T20:56:49.971Z,30.00
2023-01-26T20:59:18.599Z,29.73
2023-01-26T21:01:46.169Z,29.55
2023-01-26T21:04:13.805Z,19.98
2023-01-26T21:06:41.759Z,23.98
2023-01-26T21:09:12.359Z,25.02
2023-01-26T21:11:40.631Z,19.25
2023-01-26T21:14:10.578Z,27.27
2023-01-26T21:16:39.425Z,25.60
2023-01-26T21:19:07.338Z,27.38
2023-01-26T21:21:37.888Z,27.17
2023-01-26T21:24:05.687Z,33.50
2023-01-26T21:26:33.370Z,31.63
2023-01-26T21:29:01.061Z,24.20
2023-01-26T21:31:30.721Z,31.75
2023-01-26T21:33:59.104Z,32.65
2023-01-26T21:36:29.304Z,29.08
2023-01-26T21:39:01.159Z,32.25
2023-01-26T21:41:51.796Z,23.85
2023-01-26T21:44:27.440Z,33.03
2023-01-26T21:46:59.665Z,35.47
2023-01-26T21:49:28.820Z,29.60
2023-01-26T21:52:15.412Z,30.23
2023-01-26T21:54:42.855Z,29.35
2023-01-26T21:57:31.922Z,27.50
2023-01-26T21:59:59.683Z,29.67
2023-01-26T22:02:27.090Z,27.80
2023-01-26T22:04:54.892Z,27.52
2023-01-26T22:07:22.645Z,38.65
2023-01-26T22:09:50.414Z,35.40
2023-01-26T22:12:17.874Z,34.15
2023-01-26T22:14:45.600Z,27.60
2023-01-26T22:17:15.253Z,41.40
2023-01-26T22:19:42.687Z,36.10
2023-01-26T22:22:10.193Z,35.17
2023-01-26T22:24:37.637Z,34.20
2023-01-26T22:27:06.701Z,47.25
2023-01-26T22:29:34.695Z,45.45
2023-01-26T22:32:02.786Z,36.20
2023-01-26T22:34:30.321Z,38.65
2023-01-26T22:36:57.923Z,29.67
2023-01-26T22:39:25.426Z,28.10
2023-01-26T22:41:53.248Z,32.97
2023-01-26T22:44:20.847Z,43.60
2023-01-26T22:46:48.309Z,38.90
2023-01-26T22:49:15.793Z,39.78
2023-01-26T22:51:43.315Z,35.72
2023-01-26T22:54:10.811Z,35.55
2023-01-26T22:56:41.374Z,37.80
2023-01-26T22:59:09.185Z,32.28
2023-01-26T23:01:36.628Z,39.05
2023-01-26T23:04:04.171Z,29.98
2023-01-26T23:06:31.787Z,44.13
2023-01-26T23:09:01.317Z,37.78
2023-01-26T23:11:29.990Z,46.95
2023-01-26T23:13:58.704Z,42.72
2023-01-26T23:16:27.020Z,39.10
2023-01-26T23:18:56.662Z,33.88
2023-01-26T23:21:25.205Z,37.72
2023-01-26T23:23:55.625Z,36.83
2023-01-26T23:26:23.383Z,32.72
2023-01-26T23:28:51.152Z,29.10
2023-01-26T23:31:19.891Z,38.65
2023-01-26T23:33:47.922Z,44.58
2023-01-26T23:36:16.515Z,35.40
2023-01-26T23:38:45.914Z,31.65
2023-01-26T23:41:19.798Z,36.28
2023-01-26T23:43:47.192Z,38.47
2023-01-26T23:46:14.645Z,31.27
2023-01-26T23:48:42.244Z,37.58
2023-01-26T23:51:11.276Z,44.53
2023-01-26T23:53:42.001Z,34.00
2023-01-26T23:56:14.387Z,34.83
2023-01-26T23:58:42.003Z,38.33
